Time;durP1;ratioP1;P1;durP2;ratioP2;P2;SDS_P1;SDS_P2;PMS_P1;PMS_P2;Temp;Humidity;BMP_temperature;BMP_pressure;BME280_temperature;BME280_humidity;BME280_pressure;Samples;Min_cycle;Max_cycle;Signal;HPM_P1;HPM_P2
2023/06/19 00:00:30;;;;;;;10.02;8.48;;;20.40;92.20;;;;;;5092250;28;20444;-71
2023/06/19 00:03:16;;;;;;;11.02;8.05;;;20.30;92.30;;;;;;5100737;28;20084;-71
2023/06/19 00:06:02;;;;;;;10.38;7.50;;;20.30;92.40;;;;;;5102172;28;20404;-71
2023/06/19 00:08:48;;;;;;;8.82;7.13;;;20.30;92.60;;;;;;5103679;28;20548;-71
2023/06/19 00:11:34;;;;;;;10.18;8.60;;;20.20;92.70;;;;;;5093394;28;20511;-72
2023/06/19 00:14:20;;;;;;;9.68;7.78;;;20.20;92.90;;;;;;5092226;28;20044;-72
2023/06/19 00:17:06;;;;;;;9.63;7.38;;;20.20;93.10;;;;;;5091398;28;20051;-70
2023/06/19 00:19:53;;;;;;;9.07;7.88;;;20.20;93.20;;;;;;5093656;28;20043;-70
2023/06/19 00:22:40;;;;;;;9.95;8.60;;;20.20;93.40;;;;;;5108765;28;20088;-72
2023/06/19 00:25:26;;;;;;;9.73;8.07;;;20.10;93.50;;;;;;5105643;28;20043;-72
2023/06/19 00:28:13;;;;;;;10.30;9.20;;;20.10;93.60;;;;;;5091347;28;20039;-72
2023/06/19 00:30:59;;;;;;;9.40;7.90;;;20.10;93.80;;;;;;5098832;28;20166;-72
2023/06/19 00:33:48;;;;;;;9.43;8.00;;;20.10;93.90;;;;;;5091139;28;20120;-72
2023/06/19 00:36:40;;;;;;;9.73;8.25;;;20.10;94.00;;;;;;5085016;28;20050;-73
2023/06/19 00:39:27;;;;;;;10.18;8.75;;;20.10;94.10;;;;;;5100796;28;20063;-73
2023/06/19 00:42:13;;;;;;;11.25;8.40;;;20.10;94.20;;;;;;5090158;28;20121;-72
2023/06/19 00:44:59;;;;;;;9.25;8.23;;;20.10;94.30;;;;;;5105898;28;20122;-73
2023/06/19 00:47:45;;;;;;;11.50;8.68;;;20.10;94.40;;;;;;5097436;28;20391;-72
2023/06/19 00:50:31;;;;;;;9.88;8.55;;;20.20;94.50;;;;;;5101369;28;20394;-72
2023/06/19 00:53:19;;;;;;;9.77;8.40;;;20.10;94.60;;;;;;5090030;28;20105;-72
2023/06/19 00:56:05;;;;;;;11.38;8.77;;;20.20;94.80;;;;;;5091813;28;20028;-73
2023/06/19 00:58:53;;;;;;;10.23;8.50;;;20.20;94.80;;;;;;5089992;28;20048;-72
2023/06/19 01:01:39;;;;;;;9.45;7.90;;;20.20;94.90;;;;;;5095365;28;20039;-72
2023/06/19 01:04:25;;;;;;;10.80;9.02;;;20.20;95.00;;;;;;5099232;28;20388;-72
2023/06/19 01:07:16;;;;;;;11.70;8.13;;;20.20;95.00;;;;;;5078563;28;20024;-72
2023/06/19 01:10:06;;;;;;;10.82;8.75;;;20.20;95.10;;;;;;5090844;28;20117;-73
2023/06/19 01:13:42;;;;;;;10.00;8.40;;;20.20;95.20;;;;;;5106216;28;20473;-70
2023/06/19 01:16:29;;;;;;;8.75;7.82;;;20.30;95.20;;;;;;5024066;28;20091;-70
2023/06/19 01:19:20;;;;;;;10.38;8.23;;;20.20;95.20;;;;;;5026374;28;20504;-70
2023/06/19 01:22:06;;;;;;;10.77;8.68;;;20.20;95.30;;;;;;5090429;28;20119;-70
2023/06/19 01:24:52;;;;;;;11.10;8.45;;;20.10;95.40;;;;;;5088198;28;20126;-70
2023/06/19 01:27:38;;;;;;;10.13;8.80;;;20.10;95.50;;;;;;5093450;28;20551;-70
2023/06/19 01:30:24;;;;;;;11.82;8.38;;;20.10;95.50;;;;;;5089222;28;20124;-71
2023/06/19 01:33:26;;;;;;;12.18;9.35;;;20.10;95.60;;;;;;5098693;28;20071;-70
2023/06/19 01:36:14;;;;;;;9.93;8.00;;;20.10;95.60;;;;;;5108921;28;20089;-70
2023/06/19 01:39:00;;;;;;;11.27;8.68;;;20.10;95.70;;;;;;5092317;28;20553;-70
2023/06/19 01:41:48;;;;;;;11.13;9.05;;;20.10;95.80;;;;;;5091428;28;20043;-70
2023/06/19 01:44:34;;;;;;;10.55;9.10;;;20.00;96.10;;;;;;5091849;28;20424;-70
2023/06/19 01:47:21;;;;;;;9.77;8.18;;;20.00;95.90;;;;;;5089385;28;20501;-70
2023/06/19 01:50:08;;;;;;;10.05;8.95;;;20.00;96.00;;;;;;5089855;28;20024;-70
2023/06/19 01:52:54;;;;;;;9.43;8.32;;;20.10;96.00;;;;;;5088739;28;20035;-70
2023/06/19 01:55:40;;;;;;;10.63;8.32;;;20.00;96.10;;;;;;5089580;28;20484;-71
2023/06/19 01:58:26;;;;;;;10.75;8.43;;;20.00;96.10;;;;;;5089000;28;20043;-70
2023/06/19 02:01:12;;;;;;;10.52;9.15;;;20.00;96.20;;;;;;5093139;28;20650;-70
2023/06/19 02:03:58;;;;;;;9.65;8.50;;;20.00;96.20;;;;;;5093337;28;20477;-69
2023/06/19 02:06:44;;;;;;;10.07;8.68;;;20.00;96.30;;;;;;5089088;28;20812;-69
2023/06/19 02:09:30;;;;;;;12.15;9.20;;;20.00;96.60;;;;;;5089164;28;20043;-66
2023/06/19 02:12:16;;;;;;;13.93;9.27;;;20.00;96.60;;;;;;5090252;28;20043;-67
2023/06/19 02:15:02;;;;;;;12.38;10.00;;;20.00;96.40;;;;;;5089020;28;20036;-70
2023/06/19 02:17:48;;;;;;;11.60;9.48;;;20.00;96.50;;;;;;5090145;28;20087;-70
2023/06/19 02:20:34;;;;;;;10.82;9.20;;;20.00;96.50;;;;;;5092085;28;20044;-73
2023/06/19 02:23:20;;;;;;;11.23;9.10;;;20.00;96.50;;;;;;5091202;28;20032;-73
2023/06/19 02:26:06;;;;;;;12.25;8.70;;;20.10;96.50;;;;;;5073158;28;20590;-73
2023/06/19 02:28:52;;;;;;;10.38;9.25;;;20.00;96.50;;;;;;5089876;28;20115;-73
2023/06/19 02:31:38;;;;;;;10.50;8.55;;;20.00;96.50;;;;;;5088932;28;20043;-70
2023/06/19 02:34:24;;;;;;;11.13;9.00;;;20.10;96.60;;;;;;5094863;28;20043;-70
2023/06/19 02:37:10;;;;;;;11.80;9.73;;;20.00;96.60;;;;;;5100523;28;20034;-70
2023/06/19 02:39:57;;;;;;;11.07;8.95;;;20.00;96.60;;;;;;5088608;28;20131;-69
2023/06/19 02:42:43;;;;;;;11.07;8.88;;;20.10;96.70;;;;;;5090501;28;20126;-70
2023/06/19 02:45:29;;;;;;;9.77;8.77;;;20.10;96.70;;;;;;5090953;28;20024;-71
2023/06/19 02:48:15;;;;;;;10.85;9.18;;;20.10;96.70;;;;;;5090846;28;20031;-69
2023/06/19 02:51:01;;;;;;;10.93;9.48;;;20.10;96.70;;;;;;5088295;28;20077;-70
2023/06/19 02:53:47;;;;;;;11.95;9.93;;;20.10;96.80;;;;;;5090234;28;20067;-70
2023/06/19 02:56:33;;;;;;;11.27;8.95;;;20.00;96.70;;;;;;5088429;28;20123;-69
2023/06/19 02:59:19;;;;;;;10.80;8.93;;;20.00;96.70;;;;;;5095622;28;20054;-69
2023/06/19 03:02:05;;;;;;;11.88;9.50;;;20.00;96.70;;;;;;5092902;28;20040;-70
2023/06/19 03:04:52;;;;;;;10.68;9.00;;;20.00;96.70;;;;;;5102966;28;20042;-69
2023/06/19 03:07:38;;;;;;;11.05;9.25;;;20.00;96.80;;;;;;5103636;28;20142;-70
2023/06/19 03:10:24;;;;;;;11.38;9.15;;;20.00;96.80;;;;;;5087923;28;20032;-70
2023/06/19 03:13:10;;;;;;;14.20;9.55;;;20.00;96.80;;;;;;5089596;28;20027;-69
2023/06/19 03:15:56;;;;;;;13.43;9.90;;;20.00;96.90;;;;;;5100540;28;20072;-69
2023/06/19 03:18:44;;;;;;;12.07;9.85;;;20.00;96.90;;;;;;5100759;28;20035;-70
2023/06/19 03:21:30;;;;;;;12.65;9.70;;;20.00;96.90;;;;;;5108320;28;20028;-69
2023/06/19 03:24:16;;;;;;;13.70;9.95;;;20.00;96.90;;;;;;5106753;28;20071;-69
2023/06/19 03:27:02;;;;;;;12.23;9.57;;;20.00;96.90;;;;;;5111923;28;20040;-69
2023/06/19 03:29:48;;;;;;;10.82;9.40;;;20.00;97.00;;;;;;5105329;28;20126;-68
2023/06/19 03:32:34;;;;;;;11.35;9.57;;;20.00;97.00;;;;;;5100017;28;21801;-69
2023/06/19 03:35:20;;;;;;;12.48;9.52;;;20.00;97.00;;;;;;5092697;28;20060;-69
2023/06/19 03:38:06;;;;;;;11.88;9.55;;;20.10;97.00;;;;;;5096242;28;20189;-69
2023/06/19 03:40:52;;;;;;;12.02;9.68;;;20.10;97.00;;;;;;5106427;28;20063;-69
2023/06/19 03:43:38;;;;;;;13.02;9.50;;;20.10;97.00;;;;;;5095681;28;20122;-70
2023/06/19 03:46:24;;;;;;;11.20;9.48;;;20.20;97.00;;;;;;5112264;28;20039;-70
2023/06/19 03:49:10;;;;;;;11.93;9.23;;;20.20;97.00;;;;;;5098082;28;20055;-69
2023/06/19 03:51:56;;;;;;;12.20;9.63;;;20.30;96.90;;;;;;5097455;28;20023;-69
2023/06/19 03:54:42;;;;;;;12.05;9.50;;;20.30;96.90;;;;;;5100956;28;20453;-70
2023/06/19 03:57:28;;;;;;;12.65;9.50;;;20.30;96.90;;;;;;5094814;28;20042;-69
2023/06/19 04:00:15;;;;;;;13.00;9.45;;;20.30;96.90;;;;;;5111461;28;20091;-69
2023/06/19 04:03:01;;;;;;;12.20;9.95;;;20.30;96.80;;;;;;5103169;28;20043;-69
2023/06/19 04:05:47;;;;;;;12.15;9.15;;;20.40;96.70;;;;;;5092449;28;20484;-69
2023/06/19 04:08:33;;;;;;;11.93;9.93;;;20.40;96.70;;;;;;5090574;28;20038;-69
2023/06/19 04:11:20;;;;;;;11.05;8.98;;;20.40;96.60;;;;;;5105944;28;20050;-69
2023/06/19 04:14:06;;;;;;;11.93;9.75;;;20.40;96.50;;;;;;5102291;28;20035;-70
2023/06/19 04:16:52;;;;;;;13.38;8.77;;;20.40;96.50;;;;;;5091902;28;20047;-70
2023/06/19 04:19:38;;;;;;;15.45;10.05;;;20.40;96.50;;;;;;5108504;28;20052;-69
2023/06/19 04:22:24;;;;;;;12.32;9.93;;;20.40;96.50;;;;;;5107640;28;20040;-70
2023/06/19 04:25:10;;;;;;;11.90;9.85;;;20.40;96.40;;;;;;5093730;28;20378;-71
2023/06/19 04:27:56;;;;;;;11.82;9.50;;;20.50;96.40;;;;;;5102578;28;20035;-70
2023/06/19 04:30:42;;;;;;;12.00;9.27;;;20.50;96.30;;;;;;5109243;28;20512;-71
2023/06/19 04:33:29;;;;;;;13.57;9.52;;;20.60;96.40;;;;;;5090902;28;20047;-71
2023/06/19 04:36:15;;;;;;;11.45;9.60;;;20.60;96.30;;;;;;5091351;28;20032;-72
2023/06/19 04:39:03;;;;;;;12.38;9.55;;;20.60;96.30;;;;;;5101139;28;20031;-72
2023/06/19 04:41:49;;;;;;;13.10;10.05;;;20.60;96.30;;;;;;5105497;28;20043;-72
2023/06/19 04:44:35;;;;;;;10.98;9.52;;;20.60;96.30;;;;;;5106225;28;20031;-72
2023/06/19 04:47:23;;;;;;;12.05;9.48;;;20.70;96.40;;;;;;5091153;28;20499;-71
2023/06/19 04:50:09;;;;;;;11.07;9.43;;;20.70;96.30;;;;;;5089680;28;20668;-71
2023/06/19 04:52:54;;;;;;;10.68;9.25;;;20.70;96.30;;;;;;5095933;28;20169;-65
2023/06/19 04:55:40;;;;;;;14.48;9.35;;;20.70;96.30;;;;;;5110171;28;20036;-73
2023/06/19 04:58:27;;;;;;;11.80;9.82;;;20.70;96.30;;;;;;5101410;28;20082;-72
2023/06/19 05:01:13;;;;;;;13.02;9.65;;;20.70;96.30;;;;;;5099341;28;20024;-75
2023/06/19 05:03:59;;;;;;;10.73;9.63;;;20.70;96.30;;;;;;5089997;28;20040;-72
2023/06/19 05:06:45;;;;;;;14.60;10.63;;;20.80;96.30;;;;;;5085612;28;20029;-73
2023/06/19 05:09:31;;;;;;;11.52;9.48;;;20.80;96.30;;;;;;5102990;28;20488;-73
2023/06/19 05:12:17;;;;;;;14.55;9.88;;;20.80;96.30;;;;;;5096849;28;20035;-74
2023/06/19 05:15:03;;;;;;;12.93;10.30;;;20.80;96.20;;;;;;5089398;28;20059;-74
2023/06/19 05:17:49;;;;;;;12.93;10.35;;;20.80;96.20;;;;;;5090419;28;20086;-73
2023/06/19 05:20:35;;;;;;;11.40;9.63;;;20.90;96.30;;;;;;5099578;28;20168;-71
2023/06/19 05:23:21;;;;;;;11.93;9.30;;;20.90;96.30;;;;;;5102548;28;20024;-71
2023/06/19 05:26:07;;;;;;;11.77;9.32;;;20.90;96.20;;;;;;5094015;28;20050;-71
2023/06/19 05:28:53;;;;;;;12.35;9.68;;;20.90;96.20;;;;;;5095769;28;20581;-71
2023/06/19 05:31:39;;;;;;;11.95;9.68;;;20.90;96.40;;;;;;5109192;28;20035;-72
2023/06/19 05:34:25;;;;;;;10.48;9.38;;;20.90;96.20;;;;;;5091765;28;20052;-72
2023/06/19 05:37:11;;;;;;;10.57;9.27;;;21.00;96.20;;;;;;5074407;28;20074;-71
2023/06/19 05:39:57;;;;;;;13.52;10.00;;;21.00;96.20;;;;;;5088826;28;20883;-70
2023/06/19 05:42:43;;;;;;;13.43;10.50;;;21.00;96.30;;;;;;5095764;28;20036;-72
2023/06/19 05:45:29;;;;;;;12.80;9.77;;;21.00;96.30;;;;;;5092233;28;20043;-72
2023/06/19 05:48:15;;;;;;;12.35;9.48;;;21.00;96.30;;;;;;5083594;28;20031;-71
2023/06/19 05:51:01;;;;;;;11.57;10.07;;;21.00;96.40;;;;;;5089311;28;20039;-70
2023/06/19 05:53:49;;;;;;;20.58;10.82;;;21.10;96.40;;;;;;5097048;28;20111;-70
2023/06/19 05:56:36;;;;;;;12.32;10.15;;;21.10;96.40;;;;;;5099451;28;20122;-71
2023/06/19 05:59:21;;;;;;;13.07;9.80;;;21.20;96.50;;;;;;5099171;28;20408;-71
2023/06/19 06:02:08;;;;;;;12.82;8.88;;;21.20;96.50;;;;;;5102411;28;20499;-71
2023/06/19 06:04:53;;;;;;;13.30;10.13;;;21.20;96.50;;;;;;5090110;28;20484;-71
2023/06/19 06:07:39;;;;;;;12.63;9.85;;;21.30;96.40;;;;;;5089202;28;20031;-71
2023/06/19 06:10:25;;;;;;;12.45;9.45;;;21.30;96.40;;;;;;5089576;28;20028;-71
2023/06/19 06:13:11;;;;;;;14.50;10.48;;;21.30;96.30;;;;;;5090914;28;20504;-69
2023/06/19 06:15:58;;;;;;;12.50;9.93;;;21.30;96.30;;;;;;5091580;28;20540;-69
2023/06/19 06:18:45;;;;;;;13.07;10.40;;;21.40;96.40;;;;;;5093083;28;20040;-70
2023/06/19 06:21:31;;;;;;;11.73;10.02;;;21.40;96.40;;;;;;5097370;28;20035;-70
2023/06/19 06:24:17;;;;;;;13.63;10.43;;;21.50;96.30;;;;;;5089798;28;20032;-69
2023/06/19 06:27:03;;;;;;;11.80;10.13;;;21.50;96.30;;;;;;5090734;28;20036;-69
2023/06/19 06:29:49;;;;;;;13.07;9.70;;;21.60;96.20;;;;;;5089079;28;20040;-69
2023/06/19 06:32:35;;;;;;;15.50;10.10;;;21.50;96.20;;;;;;5099889;28;20039;-68
2023/06/19 06:35:21;;;;;;;14.88;10.80;;;21.60;96.30;;;;;;5101255;28;20085;-70
2023/06/19 06:38:07;;;;;;;16.65;10.05;;;21.60;96.30;;;;;;5095403;28;20040;-70
2023/06/19 06:40:53;;;;;;;11.13;9.10;;;21.60;96.10;;;;;;5091410;28;20043;-70
2023/06/19 06:43:42;;;;;;;13.32;9.63;;;21.70;96.10;;;;;;5092441;28;20425;-68
2023/06/19 06:46:28;;;;;;;13.65;10.02;;;21.70;96.30;;;;;;5088592;28;20060;-69
2023/06/19 06:49:16;;;;;;;12.57;9.77;;;21.70;96.30;;;;;;5090447;28;20040;-69
2023/06/19 06:52:04;;;;;;;11.27;9.10;;;21.80;96.30;;;;;;5099557;28;20063;-70
2023/06/19 06:54:50;;;;;;;14.30;10.00;;;21.90;96.30;;;;;;5088702;28;20050;-69
2023/06/19 06:57:36;;;;;;;16.58;10.70;;;22.00;96.20;;;;;;5101495;28;21659;-69
2023/06/19 07:00:22;;;;;;;13.45;10.80;;;22.00;96.20;;;;;;5098460;28;20035;-68
2023/06/19 07:03:08;;;;;;;12.40;9.85;;;22.10;96.10;;;;;;5103851;28;20028;-69
2023/06/19 07:05:54;;;;;;;17.55;11.25;;;22.20;96.10;;;;;;5094729;28;20089;-66
2023/06/19 07:08:40;;;;;;;16.05;10.70;;;22.30;96.60;;;;;;5094067;28;20485;-69
2023/06/19 07:11:26;;;;;;;14.45;9.68;;;22.30;96.30;;;;;;5091857;28;20098;-68
2023/06/19 07:14:12;;;;;;;12.45;9.48;;;22.40;96.20;;;;;;5097948;28;20089;-68
2023/06/19 07:16:58;;;;;;;17.30;10.75;;;22.50;96.00;;;;;;5107078;28;20061;-69
2023/06/19 07:19:44;;;;;;;14.23;9.68;;;22.60;95.90;;;;;;5094337;28;20047;-69
2023/06/19 07:22:30;;;;;;;13.00;9.57;;;22.70;95.90;;;;;;5105928;28;20035;-68
2023/06/19 07:25:16;;;;;;;14.38;10.50;;;22.80;95.80;;;;;;5094711;28;20503;-69
2023/06/19 07:28:04;;;;;;;15.23;9.68;;;22.80;95.50;;;;;;5102399;28;20119;-68
2023/06/19 07:30:52;;;;;;;13.13;9.40;;;22.90;95.20;;;;;;5095572;28;20032;-69
2023/06/19 07:33:38;;;;;;;11.90;9.20;;;23.00;95.20;;;;;;5092820;28;20044;-67
2023/06/19 07:36:24;;;;;;;13.52;9.82;;;23.10;95.40;;;;;;5095364;27;20039;-68
2023/06/19 07:39:10;;;;;;;11.77;9.60;;;23.20;95.00;;;;;;5092816;28;20409;-70
2023/06/19 07:41:56;;;;;;;12.23;8.98;;;23.30;94.90;;;;;;5101524;28;20056;-66
2023/06/19 07:44:43;;;;;;;15.38;9.77;;;23.40;94.80;;;;;;5098839;28;20114;-66
2023/06/19 07:47:29;;;;;;;12.68;9.50;;;23.50;94.70;;;;;;5096855;28;20031;-66
2023/06/19 07:50:15;;;;;;;11.32;8.48;;;23.60;94.70;;;;;;5088650;28;20043;-64
2023/06/19 07:53:01;;;;;;;12.23;8.73;;;23.70;94.50;;;;;;5093564;28;20028;-65
2023/06/19 07:55:47;;;;;;;12.18;9.70;;;23.80;94.30;;;;;;5093532;28;20034;-65
2023/06/19 07:58:33;;;;;;;11.23;8.93;;;23.90;94.30;;;;;;5095656;28;20462;-66
2023/06/19 08:01:19;;;;;;;11.90;9.77;;;24.00;94.00;;;;;;5079941;28;20593;-64
2023/06/19 08:04:04;;;;;;;11.43;9.32;;;24.10;93.70;;;;;;5092251;28;20127;-66
2023/06/19 08:06:51;;;;;;;11.75;9.40;;;24.10;93.60;;;;;;5091095;28;20082;-66
2023/06/19 08:09:36;;;;;;;12.25;8.70;;;24.20;93.20;;;;;;5097104;28;20036;-66
2023/06/19 08:12:22;;;;;;;9.93;8.52;;;24.20;93.10;;;;;;5100998;28;20691;-65
2023/06/19 08:15:09;;;;;;;12.07;9.05;;;24.30;93.20;;;;;;5091117;27;20089;-67
2023/06/19 08:17:55;;;;;;;11.80;8.63;;;24.30;92.70;;;;;;5093438;28;20405;-65
2023/06/19 08:20:41;;;;;;;10.13;8.88;;;24.40;92.60;;;;;;5091479;28;20047;-66
2023/06/19 08:23:27;;;;;;;10.48;8.05;;;24.40;92.60;;;;;;5092704;28;20036;-66
2023/06/19 08:26:13;;;;;;;14.35;8.13;;;24.50;92.50;;;;;;5090525;28;20047;-66
2023/06/19 08:28:59;;;;;;;10.63;8.15;;;24.60;92.30;;;;;;5098596;28;20036;-66
2023/06/19 08:31:45;;;;;;;9.32;8.15;;;24.70;92.30;;;;;;5103289;28;20485;-68
2023/06/19 08:34:31;;;;;;;11.70;8.75;;;24.80;92.60;;;;;;5092218;28;20055;-65
2023/06/19 08:37:20;;;;;;;12.48;8.65;;;24.80;92.20;;;;;;5091022;28;20615;-64
2023/06/19 08:40:09;;;;;;;10.48;8.15;;;24.80;92.10;;;;;;5089600;28;20036;-69
2023/06/19 08:42:55;;;;;;;10.48;8.25;;;24.80;92.30;;;;;;5093942;28;20032;-69
2023/06/19 08:45:41;;;;;;;9.20;8.10;;;24.90;92.20;;;;;;5091651;28;20036;-70
2023/06/19 08:48:27;;;;;;;14.88;8.32;;;24.90;91.80;;;;;;5098544;28;20035;-69
2023/06/19 08:51:16;;;;;;;11.25;8.68;;;24.90;91.60;;;;;;5091610;28;20594;-67
2023/06/19 08:54:07;;;;;;;11.57;8.70;;;25.00;91.80;;;;;;5094048;28;20476;-68
2023/06/19 08:56:56;;;;;;;10.68;8.10;;;25.00;91.60;;;;;;5094851;28;20040;-69
2023/06/19 08:59:51;;;;;;;11.07;8.13;;;25.10;91.70;;;;;;5090466;28;20050;-68
2023/06/19 09:02:42;;;;;;;10.43;8.75;;;25.10;91.60;;;;;;5093870;28;20057;-68
2023/06/19 09:05:28;;;;;;;12.65;8.55;;;25.10;91.50;;;;;;5090253;28;20039;-70
2023/06/19 09:08:15;;;;;;;11.55;9.02;;;25.20;91.30;;;;;;5092388;28;20107;-69
2023/06/19 09:11:03;;;;;;;10.18;8.10;;;25.30;91.40;;;;;;5095091;28;20035;-69
2023/06/19 09:13:56;;;;;;;11.35;8.85;;;25.30;91.50;;;;;;5090996;27;20089;-70
2023/06/19 09:16:42;;;;;;;11.93;8.75;;;25.30;91.20;;;;;;5089118;28;20540;-69
2023/06/19 09:19:28;;;;;;;13.32;8.73;;;25.40;91.30;;;;;;5095288;28;20044;-68
2023/06/19 09:22:18;;;;;;;11.98;7.82;;;25.40;91.30;;;;;;5094098;28;20031;-69
2023/06/19 09:25:05;;;;;;;12.00;8.95;;;25.50;91.30;;;;;;5093656;28;20103;-68
2023/06/19 09:27:51;;;;;;;11.95;8.45;;;25.50;91.20;;;;;;5094790;28;20034;-68
2023/06/19 09:30:37;;;;;;;9.82;8.48;;;25.50;91.20;;;;;;5100334;28;20027;-69
2023/06/19 09:33:34;;;;;;;11.45;8.07;;;25.60;91.10;;;;;;5090963;28;20473;-68
2023/06/19 09:36:20;;;;;;;10.55;8.55;;;25.60;91.10;;;;;;5089994;28;20082;-69
2023/06/19 09:39:07;;;;;;;12.05;9.45;;;25.60;91.10;;;;;;5104079;28;20050;-68
2023/06/19 09:41:58;;;;;;;13.02;9.52;;;25.60;91.00;;;;;;5090215;28;20464;-67
2023/06/19 09:44:54;;;;;;;13.02;8.35;;;25.70;91.10;;;;;;5088427;28;20031;-68
2023/06/19 09:47:45;;;;;;;13.25;8.50;;;25.70;90.90;;;;;;5093619;28;20067;-68
2023/06/19 09:50:34;;;;;;;15.23;8.48;;;25.70;91.10;;;;;;5090467;28;20036;-69
2023/06/19 09:53:20;;;;;;;11.32;8.90;;;25.80;91.20;;;;;;5089447;28;20039;-69
2023/06/19 09:56:07;;;;;;;12.35;8.40;;;25.80;90.90;;;;;;5092556;28;20496;-68
2023/06/19 09:58:59;;;;;;;10.90;9.15;;;25.90;91.20;;;;;;5089021;28;20493;-69
2023/06/19 10:01:45;;;;;;;11.20;9.40;;;26.00;91.40;;;;;;5088907;28;20119;-69
2023/06/19 10:04:43;;;;;;;10.65;8.82;;;26.00;91.30;;;;;;5090521;28;20080;-67
2023/06/19 10:07:34;;;;;;;17.10;9.75;;;26.10;91.00;;;;;;5093542;28;20072;-68
2023/06/19 10:10:25;;;;;;;10.80;8.93;;;26.20;90.90;;;;;;5093261;28;20054;-69
2023/06/19 10:13:15;;;;;;;9.77;8.50;;;26.20;91.00;;;;;;5101582;28;20050;-69
2023/06/19 10:16:02;;;;;;;10.93;8.40;;;26.30;91.00;;;;;;5090607;28;20035;-70
2023/06/19 10:18:48;;;;;;;11.57;8.30;;;26.40;90.70;;;;;;5074522;28;20046;-69
2023/06/19 10:21:44;;;;;;;10.05;8.32;;;26.40;90.30;;;;;;5091531;28;20435;-69
2023/06/19 10:24:30;;;;;;;9.20;7.97;;;26.40;90.00;;;;;;5101072;28;20059;-69
2023/06/19 10:27:25;;;;;;;10.18;8.40;;;26.50;89.90;;;;;;5097983;28;20042;-68
2023/06/19 10:30:18;;;;;;;12.25;9.35;;;26.50;90.10;;;;;;5094638;28;20049;-68
2023/06/19 10:33:04;;;;;;;10.77;8.98;;;26.50;90.10;;;;;;5101146;28;20082;-68
2023/06/19 10:35:50;;;;;;;10.70;8.57;;;26.60;90.10;;;;;;5109617;28;20113;-69
2023/06/19 10:38:36;;;;;;;12.40;8.60;;;26.60;90.20;;;;;;5099239;28;20437;-70
2023/06/19 10:41:25;;;;;;;11.02;8.57;;;26.60;90.20;;;;;;5095099;27;20107;-69
2023/06/19 10:44:14;;;;;;;10.43;7.85;;;26.60;90.00;;;;;;5102020;27;20035;-71
2023/06/19 10:47:01;;;;;;;10.50;7.68;;;26.70;90.20;;;;;;5101621;28;20373;-69
2023/06/19 10:49:48;;;;;;;9.65;8.23;;;26.60;89.70;;;;;;5092514;28;20141;-68
2023/06/19 10:52:34;;;;;;;11.32;9.18;;;26.70;89.30;;;;;;5099799;28;20023;-69
2023/06/19 10:55:21;;;;;;;10.85;8.90;;;26.60;89.10;;;;;;5110230;28;20046;-71
2023/06/19 10:58:07;;;;;;;9.27;8.02;;;26.70;89.10;;;;;;5106493;28;20398;-69
2023/06/19 11:00:53;;;;;;;12.15;8.57;;;26.80;88.90;;;;;;5097718;28;20020;-69
2023/06/19 11:03:39;;;;;;;9.55;7.47;;;26.90;89.20;;;;;;5106902;28;20369;-68
2023/06/19 11:06:26;;;;;;;10.02;8.55;;;27.00;89.10;;;;;;5107867;28;20246;-69
2023/06/19 11:09:13;;;;;;;14.25;7.80;;;27.00;89.00;;;;;;5094940;28;20455;-68
2023/06/19 11:12:00;;;;;;;9.40;7.97;;;27.10;88.60;;;;;;5110425;28;20059;-69
2023/06/19 11:14:46;;;;;;;9.00;7.10;;;27.20;88.10;;;;;;5091570;28;20036;-68
2023/06/19 11:17:32;;;;;;;9.13;6.97;;;27.30;87.80;;;;;;5104867;27;20032;-68
2023/06/19 11:20:18;;;;;;;10.05;7.65;;;27.40;87.30;;;;;;5089581;28;20132;-68
2023/06/19 11:23:04;;;;;;;9.60;7.68;;;27.40;87.10;;;;;;5093384;28;20092;-69
2023/06/19 11:25:50;;;;;;;9.10;7.25;;;27.50;86.70;;;;;;5103807;27;20031;-68
2023/06/19 11:28:36;;;;;;;9.38;8.23;;;27.60;86.00;;;;;;5097739;28;20067;-66
2023/06/19 11:31:28;;;;;;;9.85;7.13;;;27.60;85.30;;;;;;5092699;28;20030;-68
2023/06/19 11:34:15;;;;;;;8.75;7.45;;;27.60;84.80;;;;;;5099244;28;20058;-68
2023/06/19 11:37:00;;;;;;;9.50;7.30;;;27.70;84.50;;;;;;5095810;28;20020;-68
2023/06/19 11:39:48;;;;;;;8.73;7.47;;;27.70;84.90;;;;;;5092078;28;20122;-69
2023/06/19 11:42:47;;;;;;;9.45;7.25;;;27.80;84.70;;;;;;5092287;28;20173;-68
2023/06/19 11:45:45;;;;;;;12.07;7.72;;;27.90;84.20;;;;;;5090856;28;20036;-68
2023/06/19 11:48:31;;;;;;;11.25;6.53;;;27.90;83.50;;;;;;5091849;28;20036;-68
2023/06/19 11:51:17;;;;;;;9.63;7.10;;;28.00;82.90;;;;;;5092362;28;20358;-67
2023/06/19 11:54:07;;;;;;;10.43;7.32;;;28.10;83.00;;;;;;5090899;27;20036;-67
2023/06/19 11:56:53;;;;;;;13.38;7.55;;;28.10;81.40;;;;;;5096486;28;20039;-68
2023/06/19 11:59:40;;;;;;;9.32;6.43;;;28.20;81.60;;;;;;5103679;28;20108;-67
2023/06/19 12:02:26;;;;;;;10.05;6.45;;;28.30;80.70;;;;;;5095124;28;20040;-69
2023/06/19 12:05:12;;;;;;;9.27;6.78;;;28.40;80.30;;;;;;5107406;28;20074;-68
2023/06/19 12:07:58;;;;;;;9.07;5.88;;;28.60;79.90;;;;;;5095081;28;20030;-61
2023/06/19 12:10:44;;;;;;;9.15;6.60;;;28.70;79.30;;;;;;5098863;28;20032;-62
2023/06/19 12:13:30;;;;;;;12.07;5.88;;;28.80;78.90;;;;;;5091898;28;20039;-63
2023/06/19 12:16:16;;;;;;;9.52;6.93;;;28.80;79.10;;;;;;5089508;28;20523;-62
2023/06/19 12:19:02;;;;;;;7.43;6.07;;;28.80;79.00;;;;;;5088039;28;20048;-61
2023/06/19 12:21:48;;;;;;;7.35;6.43;;;28.90;78.70;;;;;;5091802;28;20098;-63
2023/06/19 12:24:33;;;;;;;10.15;7.35;;;28.90;77.60;;;;;;5096223;27;20298;-61
2023/06/19 12:27:20;;;;;;;10.38;6.85;;;29.00;77.30;;;;;;5096094;28;20516;-63
2023/06/19 12:30:07;;;;;;;8.75;6.85;;;29.10;77.60;;;;;;5099450;28;20034;-61
2023/06/19 12:32:53;;;;;;;9.80;6.57;;;29.20;77.00;;;;;;5091318;28;20039;-62
2023/06/19 12:35:41;;;;;;;7.72;6.43;;;29.30;76.60;;;;;;5094947;28;20063;-62
2023/06/19 12:38:26;;;;;;;7.97;6.95;;;29.40;75.40;;;;;;5096752;28;20077;-62
2023/06/19 12:41:13;;;;;;;8.93;6.57;;;29.50;75.70;;;;;;5090965;28;20066;-62
2023/06/19 12:43:59;;;;;;;8.10;6.05;;;29.50;75.20;;;;;;5091217;28;20093;-63
2023/06/19 12:46:45;;;;;;;7.97;6.35;;;29.60;74.10;;;;;;5090455;28;20059;-62
2023/06/19 12:49:31;;;;;;;7.47;6.20;;;29.60;74.10;;;;;;5091729;28;20040;-60
2023/06/19 12:52:17;;;;;;;10.63;6.97;;;29.70;74.40;;;;;;5096230;28;20028;-62
2023/06/19 12:55:03;;;;;;;8.55;6.63;;;29.70;74.10;;;;;;5097977;28;20429;-63
2023/06/19 12:57:49;;;;;;;8.75;6.28;;;29.70;74.50;;;;;;5091581;28;20035;-61
2023/06/19 13:00:36;;;;;;;7.32;6.47;;;29.80;73.60;;;;;;5095228;28;20032;-61
2023/06/19 13:03:22;;;;;;;7.78;6.47;;;29.80;73.30;;;;;;5091028;28;20031;-62
2023/06/19 13:06:08;;;;;;;7.93;6.55;;;29.90;73.30;;;;;;5097956;28;20039;-62
2023/06/19 13:08:54;;;;;;;7.93;6.57;;;29.90;72.10;;;;;;5094338;28;20032;-63
2023/06/19 13:11:40;;;;;;;7.30;6.10;;;29.90;71.60;;;;;;5094575;28;20032;-63
2023/06/19 13:14:26;;;;;;;9.18;6.70;;;29.80;71.40;;;;;;5106864;28;20039;-62
2023/06/19 13:17:11;;;;;;;6.55;5.55;;;29.80;71.10;;;;;;5101434;28;20038;-62
2023/06/19 13:19:59;;;;;;;10.07;6.63;;;29.80;70.50;;;;;;5089166;28;20035;-62
2023/06/19 13:22:44;;;;;;;8.52;6.15;;;29.90;71.10;;;;;;5089558;28;20521;-62
2023/06/19 13:25:32;;;;;;;9.00;6.20;;;30.00;70.30;;;;;;5074292;28;20035;-62
2023/06/19 13:28:18;;;;;;;7.50;6.07;;;30.10;71.10;;;;;;5089850;28;20060;-62
2023/06/19 13:31:04;;;;;;;8.95;7.15;;;30.30;70.30;;;;;;5097880;28;20465;-63
2023/06/19 13:33:50;;;;;;;8.02;6.53;;;30.30;70.00;;;;;;5090191;28;20127;-62
2023/06/19 13:36:36;;;;;;;9.30;7.22;;;30.30;70.30;;;;;;5089916;28;20036;-62
2023/06/19 13:39:22;;;;;;;10.00;7.43;;;30.30;70.40;;;;;;5100846;28;20071;-63
2023/06/19 13:42:08;;;;;;;10.32;7.13;;;30.20;69.70;;;;;;5107650;28;20085;-62
2023/06/19 13:44:54;;;;;;;9.35;7.50;;;30.20;69.80;;;;;;5089445;28;20036;-62
2023/06/19 13:47:40;;;;;;;12.02;7.53;;;30.30;69.80;;;;;;5090607;28;20401;-62
2023/06/19 13:50:26;;;;;;;11.32;6.88;;;30.40;70.50;;;;;;5090977;28;20044;-63
2023/06/19 13:53:12;;;;;;;10.50;7.28;;;30.50;70.50;;;;;;5093688;28;20089;-62
2023/06/19 13:55:58;;;;;;;8.32;7.30;;;30.60;69.80;;;;;;5087608;28;20115;-62
2023/06/19 13:58:44;;;;;;;9.13;6.80;;;30.70;69.00;;;;;;5095758;28;20054;-62
2023/06/19 14:01:30;;;;;;;10.50;7.38;;;30.80;69.20;;;;;;5095964;28;20036;-62
2023/06/19 14:04:16;;;;;;;16.85;7.63;;;30.70;68.90;;;;;;5096416;28;20035;-63
2023/06/19 14:07:02;;;;;;;12.30;7.88;;;30.70;68.40;;;;;;5099444;28;20036;-62
2023/06/19 14:09:48;;;;;;;8.88;7.55;;;30.60;68.30;;;;;;5089780;28;20035;-62
2023/06/19 14:12:34;;;;;;;8.45;7.38;;;30.60;68.40;;;;;;5074818;28;20032;-62
2023/06/19 14:15:20;;;;;;;8.93;6.78;;;30.50;68.20;;;;;;5097293;28;20042;-62
2023/06/19 14:18:06;;;;;;;8.68;6.90;;;30.50;68.60;;;;;;5095597;28;20107;-62